sensor_id;sensor_type;location;lat;lon;timestamp;pressure;altitude;pressure_sealevel;temperature;humidity
77120;BME280;66073;47.730;9.352;2023-05-20T00:00:57;96725.63;;;13.06;68.39
77120;BME280;66073;47.730;9.352;2023-05-20T00:03:23;96725.19;;;13.22;68.10
77120;BME280;66073;47.730;9.352;2023-05-20T00:05:48;96716.84;;;13.24;68.07
77120;BME280;66073;47.730;9.352;2023-05-20T00:08:14;96723.63;;;13.16;68.21
77120;BME280;66073;47.730;9.352;2023-05-20T00:10:40;96724.16;;;13.18;68.23
77120;BME280;66073;47.730;9.352;2023-05-20T00:13:08;96723.09;;;13.19;68.05
77120;BME280;66073;47.730;9.352;2023-05-20T00:15:33;96719.03;;;13.22;68.02
77120;BME280;66073;47.730;9.352;2023-05-20T00:18:01;96720.19;;;13.16;68.39
77120;BME280;66073;47.730;9.352;2023-05-20T00:20:28;96711.00;;;12.98;68.51
77120;BME280;66073;47.730;9.352;2023-05-20T00:22:53;96708.88;;;12.95;69.03
77120;BME280;66073;47.730;9.352;2023-05-20T00:25:19;96703.66;;;12.85;69.37
77120;BME280;66073;47.730;9.352;2023-05-20T00:27:44;96711.22;;;13.02;68.56
77120;BME280;66073;47.730;9.352;2023-05-20T00:30:11;96706.44;;;12.99;69.01
77120;BME280;66073;47.730;9.352;2023-05-20T00:32:37;96707.91;;;13.10;68.37
77120;BME280;66073;47.730;9.352;2023-05-20T00:35:03;96693.38;;;13.16;67.75
77120;BME280;66073;47.730;9.352;2023-05-20T00:37:28;96699.06;;;12.90;68.53
77120;BME280;66073;47.730;9.352;2023-05-20T00:39:54;96700.13;;;12.89;68.92
77120;BME280;66073;47.730;9.352;2023-05-20T00:42:23;96707.16;;;12.85;69.58
77120;BME280;66073;47.730;9.352;2023-05-20T00:44:50;96707.72;;;12.82;68.71
77120;BME280;66073;47.730;9.352;2023-05-20T00:47:17;96698.00;;;12.68;69.50
77120;BME280;66073;47.730;9.352;2023-05-20T00:49:44;96695.66;;;12.61;69.80
77120;BME280;66073;47.730;9.352;2023-05-20T00:52:11;96703.69;;;12.61;69.69
77120;BME280;66073;47.730;9.352;2023-05-20T00:54:37;96704.72;;;12.65;70.00
77120;BME280;66073;47.730;9.352;2023-05-20T00:57:05;96701.91;;;12.75;69.67
77120;BME280;66073;47.730;9.352;2023-05-20T00:59:33;96698.09;;;12.81;69.56
77120;BME280;66073;47.730;9.352;2023-05-20T01:01:59;96698.66;;;12.78;69.82
77120;BME280;66073;47.730;9.352;2023-05-20T01:04:25;96699.81;;;12.72;69.95
77120;BME280;66073;47.730;9.352;2023-05-20T01:06:52;96700.91;;;12.71;70.12
77120;BME280;66073;47.730;9.352;2023-05-20T01:09:20;96700.41;;;12.69;70.37
77120;BME280;66073;47.730;9.352;2023-05-20T01:12:07;96702.88;;;12.84;69.67
77120;BME280;66073;47.730;9.352;2023-05-20T01:14:42;96701.97;;;12.70;69.91
77120;BME280;66073;47.730;9.352;2023-05-20T01:17:13;96696.63;;;12.70;70.31
77120;BME280;66073;47.730;9.352;2023-05-20T01:19:43;96691.78;;;12.72;70.03
77120;BME280;66073;47.730;9.352;2023-05-20T01:22:11;96695.84;;;12.70;70.01
77120;BME280;66073;47.730;9.352;2023-05-20T01:24:46;96689.78;;;12.83;69.44
77120;BME280;66073;47.730;9.352;2023-05-20T01:27:19;96689.69;;;12.69;69.93
77120;BME280;66073;47.730;9.352;2023-05-20T01:29:46;96681.13;;;12.67;70.17
77120;BME280;66073;47.730;9.352;2023-05-20T01:32:25;96682.59;;;12.78;69.67
77120;BME280;66073;47.730;9.352;2023-05-20T01:34:52;96682.28;;;12.61;70.08
77120;BME280;66073;47.730;9.352;2023-05-20T01:37:21;96683.22;;;12.70;70.00
77120;BME280;66073;47.730;9.352;2023-05-20T01:39:49;96679.88;;;12.60;70.34
77120;BME280;66073;47.730;9.352;2023-05-20T01:42:16;96683.09;;;12.62;70.44
77120;BME280;66073;47.730;9.352;2023-05-20T01:44:42;96683.75;;;12.72;70.70
77120;BME280;66073;47.730;9.352;2023-05-20T01:47:08;96677.81;;;12.75;70.17
77120;BME280;66073;47.730;9.352;2023-05-20T01:49:33;96676.56;;;12.68;70.85
77120;BME280;66073;47.730;9.352;2023-05-20T01:51:59;96673.63;;;12.69;70.25
77120;BME280;66073;47.730;9.352;2023-05-20T01:54:25;96679.78;;;12.70;70.34
77120;BME280;66073;47.730;9.352;2023-05-20T01:56:50;96675.81;;;12.43;71.68
77120;BME280;66073;47.730;9.352;2023-05-20T01:59:16;96669.59;;;12.24;72.40
77120;BME280;66073;47.730;9.352;2023-05-20T02:01:41;96672.13;;;12.34;72.15
77120;BME280;66073;47.730;9.352;2023-05-20T02:04:07;96663.44;;;12.24;72.68
77120;BME280;66073;47.730;9.352;2023-05-20T02:06:32;96671.41;;;12.29;72.61
77120;BME280;66073;47.730;9.352;2023-05-20T02:08:58;96664.91;;;12.35;72.82
77120;BME280;66073;47.730;9.352;2023-05-20T02:11:24;96665.94;;;12.39;72.68
77120;BME280;66073;47.730;9.352;2023-05-20T02:13:51;96657.91;;;12.39;72.82
77120;BME280;66073;47.730;9.352;2023-05-20T02:16:17;96665.09;;;12.43;72.50
77120;BME280;66073;47.730;9.352;2023-05-20T02:18:42;96658.50;;;12.36;72.62
77120;BME280;66073;47.730;9.352;2023-05-20T02:21:08;96663.38;;;12.29;72.80
77120;BME280;66073;47.730;9.352;2023-05-20T02:23:34;96655.13;;;12.25;73.14
77120;BME280;66073;47.730;9.352;2023-05-20T02:25:59;96653.31;;;12.21;73.25
77120;BME280;66073;47.730;9.352;2023-05-20T02:28:25;96649.09;;;12.15;73.72
77120;BME280;66073;47.730;9.352;2023-05-20T02:30:50;96647.00;;;12.12;73.99
77120;BME280;66073;47.730;9.352;2023-05-20T02:33:16;96649.44;;;12.08;74.45
77120;BME280;66073;47.730;9.352;2023-05-20T02:35:42;96642.22;;;12.09;74.41
77120;BME280;66073;47.730;9.352;2023-05-20T02:38:07;96645.16;;;12.07;74.44
77120;BME280;66073;47.730;9.352;2023-05-20T02:40:33;96630.03;;;11.98;74.84
77120;BME280;66073;47.730;9.352;2023-05-20T02:42:59;96634.69;;;11.87;75.50
77120;BME280;66073;47.730;9.352;2023-05-20T02:45:26;96640.75;;;11.92;75.63
77120;BME280;66073;47.730;9.352;2023-05-20T02:47:51;96641.91;;;11.86;75.73
77120;BME280;66073;47.730;9.352;2023-05-20T02:50:17;96640.84;;;11.87;75.79
77120;BME280;66073;47.730;9.352;2023-05-20T02:52:42;96638.66;;;11.89;75.79
77120;BME280;66073;47.730;9.352;2023-05-20T02:55:10;96647.38;;;11.71;76.69
77120;BME280;66073;47.730;9.352;2023-05-20T02:57:36;96650.06;;;11.71;76.70
77120;BME280;66073;47.730;9.352;2023-05-20T03:00:06;96655.22;;;11.63;77.19
77120;BME280;66073;47.730;9.352;2023-05-20T03:02:35;96655.50;;;11.56;77.39
77120;BME280;66073;47.730;9.352;2023-05-20T03:05:00;96653.97;;;11.50;77.84
77120;BME280;66073;47.730;9.352;2023-05-20T03:07:27;96651.25;;;11.55;77.66
77120;BME280;66073;47.730;9.352;2023-05-20T03:09:52;96653.94;;;11.55;77.84
77120;BME280;66073;47.730;9.352;2023-05-20T03:12:18;96650.81;;;11.43;78.16
77120;BME280;66073;47.730;9.352;2023-05-20T03:14:43;96644.91;;;11.46;78.45
77120;BME280;66073;47.730;9.352;2023-05-20T03:17:09;96642.81;;;11.43;78.20
77120;BME280;66073;47.730;9.352;2023-05-20T03:19:36;96640.38;;;11.47;78.46
77120;BME280;66073;47.730;9.352;2023-05-20T03:22:01;96656.81;;;11.30;79.31
77120;BME280;66073;47.730;9.352;2023-05-20T03:24:27;96644.78;;;11.27;79.75
77120;BME280;66073;47.730;9.352;2023-05-20T03:26:53;96646.94;;;11.30;79.87
77120;BME280;66073;47.730;9.352;2023-05-20T03:29:22;96642.59;;;11.34;79.71
77120;BME280;66073;47.730;9.352;2023-05-20T03:31:47;96642.22;;;11.51;79.20
77120;BME280;66073;47.730;9.352;2023-05-20T03:34:14;96640.94;;;11.43;79.41
77120;BME280;66073;47.730;9.352;2023-05-20T03:36:39;96636.25;;;11.30;80.06
77120;BME280;66073;47.730;9.352;2023-05-20T03:39:05;96648.50;;;11.31;80.02
77120;BME280;66073;47.730;9.352;2023-05-20T03:41:31;96639.91;;;11.39;79.55
77120;BME280;66073;47.730;9.352;2023-05-20T03:43:57;96639.16;;;11.34;79.94
77120;BME280;66073;47.730;9.352;2023-05-20T03:46:22;96637.53;;;11.33;79.93
77120;BME280;66073;47.730;9.352;2023-05-20T03:48:47;96634.78;;;11.43;79.79
77120;BME280;66073;47.730;9.352;2023-05-20T03:51:13;96636.38;;;11.44;79.53
77120;BME280;66073;47.730;9.352;2023-05-20T03:53:38;96631.53;;;11.46;79.46
77120;BME280;66073;47.730;9.352;2023-05-20T03:56:04;96636.38;;;11.44;79.81
77120;BME280;66073;47.730;9.352;2023-05-20T03:58:29;96632.13;;;11.38;80.03
77120;BME280;66073;47.730;9.352;2023-05-20T04:00:55;96635.50;;;11.54;79.62
77120;BME280;66073;47.730;9.352;2023-05-20T04:03:21;96642.22;;;11.51;79.46
77120;BME280;66073;47.730;9.352;2023-05-20T04:05:48;96630.38;;;11.57;78.78
77120;BME280;66073;47.730;9.352;2023-05-20T04:08:13;96640.59;;;11.50;79.46
77120;BME280;66073;47.730;9.352;2023-05-20T04:10:41;96640.59;;;11.50;79.98
77120;BME280;66073;47.730;9.352;2023-05-20T04:13:07;96647.78;;;11.55;79.83
77120;BME280;66073;47.730;9.352;2023-05-20T04:15:36;96650.41;;;11.60;79.90
77120;BME280;66073;47.730;9.352;2023-05-20T04:18:03;96647.28;;;11.81;79.37
77120;BME280;66073;47.730;9.352;2023-05-20T04:20:30;96654.94;;;11.93;79.10
77120;BME280;66073;47.730;9.352;2023-05-20T04:22:55;96648.09;;;12.06;78.53
77120;BME280;66073;47.730;9.352;2023-05-20T04:25:21;96650.28;;;12.04;78.56
77120;BME280;66073;47.730;9.352;2023-05-20T04:27:47;96650.94;;;12.19;78.11
77120;BME280;66073;47.730;9.352;2023-05-20T04:30:14;96654.84;;;12.27;77.55
77120;BME280;66073;47.730;9.352;2023-05-20T04:32:42;96652.69;;;12.29;77.54
77120;BME280;66073;47.730;9.352;2023-05-20T04:35:08;96657.47;;;12.32;77.93
77120;BME280;66073;47.730;9.352;2023-05-20T04:37:36;96650.19;;;12.37;77.91
77120;BME280;66073;47.730;9.352;2023-05-20T04:40:03;96654.59;;;12.47;77.15
77120;BME280;66073;47.730;9.352;2023-05-20T04:42:29;96657.22;;;12.52;76.51
77120;BME280;66073;47.730;9.352;2023-05-20T04:44:54;96642.53;;;12.50;76.69
77120;BME280;66073;47.730;9.352;2023-05-20T04:47:20;96642.16;;;12.56;76.63
77120;BME280;66073;47.730;9.352;2023-05-20T04:49:45;96641.81;;;12.63;76.68
77120;BME280;66073;47.730;9.352;2023-05-20T04:52:10;96649.44;;;12.74;76.13
77120;BME280;66073;47.730;9.352;2023-05-20T04:54:36;96642.72;;;12.77;76.59
77120;BME280;66073;47.730;9.352;2023-05-20T04:57:02;96641.34;;;12.79;75.94
77120;BME280;66073;47.730;9.352;2023-05-20T04:59:28;96638.69;;;12.98;75.50
77120;BME280;66073;47.730;9.352;2023-05-20T05:01:54;96636.69;;;13.04;75.23
77120;BME280;66073;47.730;9.352;2023-05-20T05:04:19;96630.53;;;13.03;75.58
77120;BME280;66073;47.730;9.352;2023-05-20T05:06:47;96629.31;;;12.96;75.38
77120;BME280;66073;47.730;9.352;2023-05-20T05:09:12;96628.88;;;12.88;75.56
77120;BME280;66073;47.730;9.352;2023-05-20T05:11:38;96627.81;;;13.08;75.38
77120;BME280;66073;47.730;9.352;2023-05-20T05:14:03;96629.41;;;13.09;75.04
77120;BME280;66073;47.730;9.352;2023-05-20T05:16:29;96626.06;;;13.17;74.94
77120;BME280;66073;47.730;9.352;2023-05-20T05:18:56;96634.97;;;13.13;74.92
77120;BME280;66073;47.730;9.352;2023-05-20T05:21:21;96634.75;;;13.09;75.48
77120;BME280;66073;47.730;9.352;2023-05-20T05:23:47;96632.16;;;13.23;75.03
77120;BME280;66073;47.730;9.352;2023-05-20T05:26:12;96627.22;;;13.30;74.99
77120;BME280;66073;47.730;9.352;2023-05-20T05:28:40;96628.09;;;13.25;75.04
77120;BME280;66073;47.730;9.352;2023-05-20T05:31:07;96629.44;;;13.41;74.68
77120;BME280;66073;47.730;9.352;2023-05-20T05:33:33;96628.81;;;13.31;74.18
77120;BME280;66073;47.730;9.352;2023-05-20T05:35:58;96621.81;;;13.49;74.18
77120;BME280;66073;47.730;9.352;2023-05-20T05:38:25;96622.78;;;13.39;74.58
77120;BME280;66073;47.730;9.352;2023-05-20T05:40:50;96618.59;;;13.33;74.73
77120;BME280;66073;47.730;9.352;2023-05-20T05:43:16;96611.41;;;13.47;73.98
77120;BME280;66073;47.730;9.352;2023-05-20T05:45:42;96607.13;;;13.60;73.55
77120;BME280;66073;47.730;9.352;2023-05-20T05:48:07;96621.09;;;13.75;73.36
77120;BME280;66073;47.730;9.352;2023-05-20T05:50:32;96608.56;;;13.84;72.41
77120;BME280;66073;47.730;9.352;2023-05-20T05:52:58;96615.84;;;13.84;72.97
77120;BME280;66073;47.730;9.352;2023-05-20T05:55:23;96618.53;;;13.84;73.06
77120;BME280;66073;47.730;9.352;2023-05-20T05:57:49;96616.16;;;14.10;71.63
77120;BME280;66073;47.730;9.352;2023-05-20T06:00:15;96613.16;;;13.84;72.94
77120;BME280;66073;47.730;9.352;2023-05-20T06:02:41;96617.22;;;13.81;73.82
77120;BME280;66073;47.730;9.352;2023-05-20T06:05:07;96628.56;;;13.46;74.30
77120;BME280;66073;47.730;9.352;2023-05-20T06:07:32;96627.97;;;13.49;74.96
77120;BME280;66073;47.730;9.352;2023-05-20T06:09:58;96636.00;;;13.81;74.14
77120;BME280;66073;47.730;9.352;2023-05-20T06:12:23;96631.03;;;13.88;73.84
77120;BME280;66073;47.730;9.352;2023-05-20T06:14:49;96631.22;;;13.78;73.52
77120;BME280;66073;47.730;9.352;2023-05-20T06:17:14;96631.31;;;13.73;74.24
77120;BME280;66073;47.730;9.352;2023-05-20T06:19:40;96625.41;;;14.04;72.83
77120;BME280;66073;47.730;9.352;2023-05-20T06:22:05;96620.63;;;14.01;72.90
77120;BME280;66073;47.730;9.352;2023-05-20T06:24:32;96607.63;;;14.08;72.50
77120;BME280;66073;47.730;9.352;2023-05-20T06:26:58;96604.13;;;13.94;73.27
77120;BME280;66073;47.730;9.352;2023-05-20T06:29:23;96591.91;;;14.28;72.48
77120;BME280;66073;47.730;9.352;2023-05-20T06:31:49;96587.47;;;14.73;71.41
77120;BME280;66073;47.730;9.352;2023-05-20T06:34:14;96590.56;;;15.03;68.97
77120;BME280;66073;47.730;9.352;2023-05-20T06:36:40;96590.28;;;14.68;70.63
77120;BME280;66073;47.730;9.352;2023-05-20T06:39:05;96588.41;;;15.05;69.08
77120;BME280;66073;47.730;9.352;2023-05-20T06:41:40;96590.94;;;15.10;68.74
77120;BME280;66073;47.730;9.352;2023-05-20T06:44:06;96587.59;;;15.26;68.93
77120;BME280;66073;47.730;9.352;2023-05-20T06:46:33;96580.81;;;15.07;68.99
77120;BME280;66073;47.730;9.352;2023-05-20T06:48:58;96580.34;;;14.69;69.50
77120;BME280;66073;47.730;9.352;2023-05-20T06:51:24;96594.53;;;14.83;69.83
77120;BME280;66073;47.730;9.352;2023-05-20T06:53:49;96589.59;;;14.63;69.50
77120;BME280;66073;47.730;9.352;2023-05-20T06:56:15;96587.50;;;14.96;68.94
77120;BME280;66073;47.730;9.352;2023-05-20T06:58:40;96584.47;;;15.33;68.34
77120;BME280;66073;47.730;9.352;2023-05-20T07:01:06;96591.03;;;14.82;69.95
77120;BME280;66073;47.730;9.352;2023-05-20T07:03:31;96595.19;;;14.88;69.81
77120;BME280;66073;47.730;9.352;2023-05-20T07:05:57;96589.72;;;15.38;67.68
77120;BME280;66073;47.730;9.352;2023-05-20T07:08:23;96589.63;;;15.65;67.06
77120;BME280;66073;47.730;9.352;2023-05-20T07:10:48;96588.50;;;15.22;67.39
77120;BME280;66073;47.730;9.352;2023-05-20T07:13:14;96579.34;;;15.23;68.02
77120;BME280;66073;47.730;9.352;2023-05-20T07:15:39;96585.94;;;15.17;67.48
77120;BME280;66073;47.730;9.352;2023-05-20T07:18:05;96580.50;;;15.08;68.70
77120;BME280;66073;47.730;9.352;2023-05-20T07:20:30;96589.91;;;14.97;68.32
77120;BME280;66073;47.730;9.352;2023-05-20T07:22:56;96585.13;;;15.16;67.24
77120;BME280;66073;47.730;9.352;2023-05-20T07:25:21;96581.38;;;14.81;68.46
77120;BME280;66073;47.730;9.352;2023-05-20T07:27:47;96586.03;;;14.89;68.09
77120;BME280;66073;47.730;9.352;2023-05-20T07:30:12;96588.50;;;15.22;68.00
77120;BME280;66073;47.730;9.352;2023-05-20T07:32:38;96579.09;;;15.33;67.10
77120;BME280;66073;47.730;9.352;2023-05-20T07:35:04;96576.28;;;14.94;68.64
77120;BME280;66073;47.730;9.352;2023-05-20T07:37:30;96581.81;;;15.55;66.50
77120;BME280;66073;47.730;9.352;2023-05-20T07:39:55;96580.84;;;15.37;66.69
77120;BME280;66073;47.730;9.352;2023-05-20T07:42:21;96582.75;;;14.93;68.94
77120;BME280;66073;47.730;9.352;2023-05-20T07:44:47;96580.44;;;15.22;67.29
77120;BME280;66073;47.730;9.352;2023-05-20T07:47:13;96579.22;;;15.72;66.91
77120;BME280;66073;47.730;9.352;2023-05-20T07:49:38;96576.88;;;15.79;65.96
77120;BME280;66073;47.730;9.352;2023-05-20T07:52:04;96585.00;;;16.36;64.46
77120;BME280;66073;47.730;9.352;2023-05-20T07:54:29;96579.06;;;16.17;64.81
77120;BME280;66073;47.730;9.352;2023-05-20T07:56:55;96578.72;;;15.70;66.74
77120;BME280;66073;47.730;9.352;2023-05-20T07:59:20;96581.75;;;16.17;64.81
77120;BME280;66073;47.730;9.352;2023-05-20T08:01:46;96578.53;;;15.98;65.15
77120;BME280;66073;47.730;9.352;2023-05-20T08:04:11;96583.25;;;15.61;66.66
77120;BME280;66073;47.730;9.352;2023-05-20T08:06:37;96579.41;;;15.54;68.14
77120;BME280;66073;47.730;9.352;2023-05-20T08:09:02;96582.81;;;15.46;67.67
77120;BME280;66073;47.730;9.352;2023-05-20T08:11:28;96580.41;;;15.58;66.80
77120;BME280;66073;47.730;9.352;2023-05-20T08:13:53;96587.63;;;15.79;66.88
77120;BME280;66073;47.730;9.352;2023-05-20T08:16:20;96591.06;;;15.71;65.90
77120;BME280;66073;47.730;9.352;2023-05-20T08:18:46;96578.69;;;15.48;66.97
77120;BME280;66073;47.730;9.352;2023-05-20T08:21:11;96577.94;;;15.25;68.05
77120;BME280;66073;47.730;9.352;2023-05-20T08:23:38;96582.16;;;15.18;68.50
77120;BME280;66073;47.730;9.352;2023-05-20T08:26:03;96580.13;;;15.01;68.73
77120;BME280;66073;47.730;9.352;2023-05-20T08:28:30;96579.81;;;15.47;66.59
77120;BME280;66073;47.730;9.352;2023-05-20T08:30:56;96580.94;;;15.68;67.32
77120;BME280;66073;47.730;9.352;2023-05-20T08:33:24;96581.28;;;16.15;64.00
77120;BME280;66073;47.730;9.352;2023-05-20T08:35:50;96578.69;;;16.49;63.38
77120;BME280;66073;47.730;9.352;2023-05-20T08:38:15;96576.19;;;16.61;63.38
77120;BME280;66073;47.730;9.352;2023-05-20T08:40:40;96572.66;;;16.52;63.09
77120;BME280;66073;47.730;9.352;2023-05-20T08:43:06;96579.31;;;16.46;65.12
77120;BME280;66073;47.730;9.352;2023-05-20T08:45:33;96580.69;;;16.35;64.72
77120;BME280;66073;47.730;9.352;2023-05-20T08:47:59;96572.75;;;16.87;63.48
77120;BME280;66073;47.730;9.352;2023-05-20T08:50:26;96574.31;;;16.88;62.50
77120;BME280;66073;47.730;9.352;2023-05-20T08:52:52;96577.94;;;16.66;62.55
77120;BME280;66073;47.730;9.352;2023-05-20T08:55:24;96577.13;;;16.09;64.36
77120;BME280;66073;47.730;9.352;2023-05-20T08:57:53;96577.34;;;16.21;64.39
77120;BME280;66073;47.730;9.352;2023-05-20T09:00:20;96581.72;;;16.56;63.68
77120;BME280;66073;47.730;9.352;2023-05-20T09:02:48;96574.59;;;16.60;63.31
77120;BME280;66073;47.730;9.352;2023-05-20T09:05:16;96569.72;;;17.14;60.33
77120;BME280;66073;47.730;9.352;2023-05-20T09:07:42;96570.84;;;17.30;62.06
77120;BME280;66073;47.730;9.352;2023-05-20T09:10:08;96566.72;;;16.90;61.49
77120;BME280;66073;47.730;9.352;2023-05-20T09:12:35;96580.97;;;16.64;61.33
77120;BME280;66073;47.730;9.352;2023-05-20T09:15:00;96572.38;;;16.62;62.30
77120;BME280;66073;47.730;9.352;2023-05-20T09:17:26;96570.59;;;16.49;62.15
77120;BME280;66073;47.730;9.352;2023-05-20T09:19:52;96570.88;;;15.82;63.89
77120;BME280;66073;47.730;9.352;2023-05-20T09:22:26;96581.13;;;16.68;62.85
77120;BME280;66073;47.730;9.352;2023-05-20T09:24:52;96568.28;;;16.73;62.92
77120;BME280;66073;47.730;9.352;2023-05-20T09:27:19;96564.81;;;16.99;62.42
77120;BME280;66073;47.730;9.352;2023-05-20T09:29:48;96561.41;;;16.50;63.42
77120;BME280;66073;47.730;9.352;2023-05-20T09:32:15;96564.75;;;16.47;64.17
77120;BME280;66073;47.730;9.352;2023-05-20T09:34:41;96558.44;;;15.64;65.41
77120;BME280;66073;47.730;9.352;2023-05-20T09:37:08;96560.47;;;15.98;64.60
77120;BME280;66073;47.730;9.352;2023-05-20T09:39:55;96552.75;;;16.70;61.81
77120;BME280;66073;47.730;9.352;2023-05-20T09:42:33;96549.94;;;16.27;64.24
77120;BME280;66073;47.730;9.352;2023-05-20T09:45:01;96553.25;;;16.16;64.86
77120;BME280;66073;47.730;9.352;2023-05-20T09:47:29;96557.66;;;16.77;64.40
77120;BME280;66073;47.730;9.352;2023-05-20T09:49:56;96562.69;;;16.44;64.24
77120;BME280;66073;47.730;9.352;2023-05-20T09:52:23;96558.13;;;17.22;63.12
77120;BME280;66073;47.730;9.352;2023-05-20T09:54:53;96557.03;;;17.06;61.30
77120;BME280;66073;47.730;9.352;2023-05-20T09:57:20;96551.47;;;17.11;62.49
77120;BME280;66073;47.730;9.352;2023-05-20T09:59:46;96542.00;;;18.15;57.99
77120;BME280;66073;47.730;9.352;2023-05-20T10:02:12;96547.47;;;18.86;55.51
77120;BME280;66073;47.730;9.352;2023-05-20T10:04:48;96553.06;;;18.80;57.98
77120;BME280;66073;47.730;9.352;2023-05-20T10:15:50;96549.38;;;18.64;59.00
77120;BME280;66073;47.730;9.352;2023-05-20T10:18:46;96538.56;;;18.85;55.91
77120;BME280;66073;47.730;9.352;2023-05-20T10:21:15;96543.69;;;18.99;57.76
77120;BME280;66073;47.730;9.352;2023-05-20T10:23:41;96546.06;;;17.92;57.74
77120;BME280;66073;47.730;9.352;2023-05-20T10:26:08;96536.44;;;17.73;59.78
77120;BME280;66073;47.730;9.352;2023-05-20T10:28:36;96539.13;;;17.82;59.09
77120;BME280;66073;47.730;9.352;2023-05-20T10:31:13;96530.56;;;16.91;61.79
77120;BME280;66073;47.730;9.352;2023-05-20T10:33:44;96534.38;;;16.90;62.95
77120;BME280;66073;47.730;9.352;2023-05-20T10:36:27;96535.84;;;17.59;60.16
77120;BME280;66073;47.730;9.352;2023-05-20T10:38:58;96533.38;;;17.20;62.17
77120;BME280;66073;47.730;9.352;2023-05-20T10:41:25;96538.19;;;17.78;61.16
77120;BME280;66073;47.730;9.352;2023-05-20T10:44:02;96537.03;;;18.75;56.25
77120;BME280;66073;47.730;9.352;2023-05-20T10:46:30;96545.38;;;18.12;58.77
77120;BME280;66073;47.730;9.352;2023-05-20T10:48:56;96536.94;;;19.25;54.27
77120;BME280;66073;47.730;9.352;2023-05-20T10:51:23;96534.06;;;18.10;58.69
77120;BME280;66073;47.730;9.352;2023-05-20T10:53:52;96531.56;;;18.05;60.98
77120;BME280;66073;47.730;9.352;2023-05-20T10:56:23;96520.72;;;19.38;57.54
77120;BME280;66073;47.730;9.352;2023-05-20T10:58:50;96517.13;;;19.78;54.92
77120;BME280;66073;47.730;9.352;2023-05-20T11:01:16;96511.72;;;20.03;54.77
77120;BME280;66073;47.730;9.352;2023-05-20T11:03:48;96508.97;;;19.66;56.66
77120;BME280;66073;47.730;9.352;2023-05-20T11:06:16;96510.31;;;19.60;52.81
77120;BME280;66073;47.730;9.352;2023-05-20T11:08:43;96508.84;;;19.63;54.17
77120;BME280;66073;47.730;9.352;2023-05-20T11:11:10;96517.53;;;19.56;54.04
77120;BME280;66073;47.730;9.352;2023-05-20T11:13:36;96514.34;;;19.42;53.82
77120;BME280;66073;47.730;9.352;2023-05-20T11:16:03;96513.00;;;19.48;52.50
77120;BME280;66073;47.730;9.352;2023-05-20T11:18:29;96516.56;;;19.40;55.26
77120;BME280;66073;47.730;9.352;2023-05-20T11:20:59;96527.31;;;18.24;57.87
77120;BME280;66073;47.730;9.352;2023-05-20T11:23:27;96526.50;;;18.32;57.75
77120;BME280;66073;47.730;9.352;2023-05-20T11:25:55;96514.22;;;18.85;55.67
77120;BME280;66073;47.730;9.352;2023-05-20T11:28:22;96514.78;;;19.44;54.15
77120;BME280;66073;47.730;9.352;2023-05-20T11:30:49;96506.31;;;20.39;50.68
77120;BME280;66073;47.730;9.352;2023-05-20T11:33:16;96508.34;;;20.18;53.13
77120;BME280;66073;47.730;9.352;2023-05-20T11:35:47;96504.94;;;19.85;54.99
77120;BME280;66073;47.730;9.352;2023-05-20T11:38:13;96509.41;;;21.61;50.15
77120;BME280;66073;47.730;9.352;2023-05-20T11:40:45;96496.38;;;20.43;51.69
77120;BME280;66073;47.730;9.352;2023-05-20T11:43:13;96508.56;;;20.37;51.85
77120;BME280;66073;47.730;9.352;2023-05-20T11:45:40;96501.66;;;18.80;57.15
77120;BME280;66073;47.730;9.352;2023-05-20T11:48:06;96507.63;;;18.24;57.67
77120;BME280;66073;47.730;9.352;2023-05-20T11:50:39;96500.81;;;18.89;56.34
77120;BME280;66073;47.730;9.352;2023-05-20T11:53:25;96498.53;;;18.78;56.70
77120;BME280;66073;47.730;9.352;2023-05-20T11:58:21;96495.88;;;19.56;57.14
77120;BME280;66073;47.730;9.352;2023-05-20T12:00:47;96494.72;;;21.34;50.96
77120;BME280;66073;47.730;9.352;2023-05-20T12:03:13;96486.31;;;21.39;52.79
77120;BME280;66073;47.730;9.352;2023-05-20T12:05:40;96485.53;;;20.83;54.35
77120;BME280;66073;47.730;9.352;2023-05-20T12:08:06;96475.13;;;21.56;53.65
77120;BME280;66073;47.730;9.352;2023-05-20T12:10:32;96472.69;;;22.14;49.38
77120;BME280;66073;47.730;9.352;2023-05-20T12:12:58;96478.28;;;21.58;50.60
77120;BME280;66073;47.730;9.352;2023-05-20T12:15:24;96475.16;;;19.97;53.43
77120;BME280;66073;47.730;9.352;2023-05-20T12:17:52;96464.31;;;21.01;53.44
77120;BME280;66073;47.730;9.352;2023-05-20T12:20:21;96461.03;;;21.98;51.60
77120;BME280;66073;47.730;9.352;2023-05-20T12:22:47;96467.28;;;20.96;53.25
77120;BME280;66073;47.730;9.352;2023-05-20T12:25:18;96463.53;;;21.28;49.56
77120;BME280;66073;47.730;9.352;2023-05-20T12:27:45;96440.84;;;22.49;46.17
77120;BME280;66073;47.730;9.352;2023-05-20T12:30:17;96447.25;;;22.22;49.42
77120;BME280;66073;47.730;9.352;2023-05-20T12:32:44;96448.66;;;22.51;49.54
77120;BME280;66073;47.730;9.352;2023-05-20T12:35:11;96428.25;;;22.80;48.84
77120;BME280;66073;47.730;9.352;2023-05-20T12:37:39;96434.44;;;21.44;51.18
77120;BME280;66073;47.730;9.352;2023-05-20T12:40:07;96438.03;;;21.05;50.89
77120;BME280;66073;47.730;9.352;2023-05-20T12:42:39;96433.41;;;21.96;49.86
77120;BME280;66073;47.730;9.352;2023-05-20T12:45:06;96435.19;;;22.23;48.70
77120;BME280;66073;47.730;9.352;2023-05-20T12:47:33;96427.25;;;21.20;50.20
77120;BME280;66073;47.730;9.352;2023-05-20T12:50:00;96421.84;;;22.34;50.40
77120;BME280;66073;47.730;9.352;2023-05-20T12:52:25;96428.00;;;23.27;48.18
77120;BME280;66073;47.730;9.352;2023-05-20T12:54:55;96430.22;;;23.86;46.28
77120;BME280;66073;47.730;9.352;2023-05-20T12:57:22;96436.09;;;23.65;44.68
77120;BME280;66073;47.730;9.352;2023-05-20T12:59:47;96424.63;;;24.28;41.52
77120;BME280;66073;47.730;9.352;2023-05-20T13:02:13;96407.38;;;23.48;45.32
77120;BME280;66073;47.730;9.352;2023-05-20T13:04:38;96404.66;;;23.48;49.15
77120;BME280;66073;47.730;9.352;2023-05-20T13:07:04;96408.53;;;23.47;48.54
77120;BME280;66073;47.730;9.352;2023-05-20T13:09:29;96399.16;;;22.45;47.57